Hovedside
METAR-TAF:

METAR-TAF

Lufthavner :

Kota Bharu, Malaysia

breddegrad: 06-10N, lengdegrad: 102-17E, høyde over havet: 5 m

Gjeldene værobservasjon

Denne rapporten ble laget for 43 minutter siden, klokken 17:00 UTC
Flau vind
Temperatur 27°C
Luftfuktighet 89%
Trykk 1008 hPa
Sikt 10 km eller mer
Få skyer i en høyde av 2000 ft

METAR: WMKC 151700Z 00000KT 9999 FEW020 27/25 Q1008

Tid: 01:43 (17:43 UTC)

Varsel

Denne rapporten ble laget for 6 timer og 43 minutter siden, klokken 11:00 UTC
Varsel gyldig fra 15. klokken 12 UTC til 16. klokken 12 UTC
Vind 5 kt fra Nordøst
Sikt 10 km eller mer
Få skyer i en høyde av 2000 ft

TAF: WMKC 151100Z 1512/1612 04005KT 9999 FEW020

Værobservasjoner og værvarsel for over 4000 flyplasser (METAR- og TAF-rapporter).

Tilgjengelige stasjoner er representert av de røde og gule prikkene på kartet.

Hold musepekeren over prikken for å se navnet på stasjonen.

Klikk så for å se værobservasjoner og -varsler.

For å forandre kartet kan du klikke på den grønne knappen med svart kryss for å zoome inn, på den grønne knappen med strek for å zoome ut, eller på de grønne pilene for å se tilstøtende kart.


METAR-TAF: